createdAt,value
2022-08-05T00:02:24.314Z,64.74
2022-08-05T00:04:55.774Z,64.54
2022-08-05T00:08:00.232Z,64.58
2022-08-05T00:10:09.564Z,64.47
2022-08-05T00:12:48.495Z,64.37
2022-08-05T00:15:55.953Z,64.56
2022-08-05T00:18:10.474Z,64.57
2022-08-05T00:20:48.790Z,64.35
2022-08-05T00:23:15.128Z,64.56
2022-08-05T00:25:45.531Z,64.53
2022-08-05T00:28:13.176Z,64.55
2022-08-05T00:30:39.744Z,64.41
2022-08-05T00:34:41.944Z,64.40
2022-08-05T00:36:15.083Z,64.27
2022-08-05T00:38:40.853Z,64.17
2022-08-05T00:41:07.233Z,64.42
2022-08-05T00:43:47.157Z,64.39
2022-08-05T00:46:16.042Z,64.39
2022-08-05T00:48:51.217Z,64.52
2022-08-05T00:51:52.013Z,64.44
2022-08-05T00:54:05.866Z,64.40
2022-08-05T00:56:32.123Z,64.22
2022-08-05T00:58:58.976Z,64.27
2022-08-05T01:01:42.809Z,64.28
2022-08-05T01:04:14.075Z,64.14
2022-08-05T01:06:43.699Z,64.22
2022-08-05T01:09:14.803Z,64.24
2022-08-05T01:11:45.561Z,64.17
2022-08-05T01:14:17.444Z,64.17
2022-08-05T01:17:03.246Z,64.27
2022-08-05T01:20:02.368Z,64.18
2022-08-05T01:22:50.962Z,64.26
2022-08-05T01:25:20.122Z,64.26
2022-08-05T01:28:08.795Z,64.28
2022-08-05T01:30:39.304Z,64.18
2022-08-05T01:33:08.735Z,64.12
2022-08-05T01:35:52.038Z,64.11
2022-08-05T01:38:27.533Z,64.25
2022-08-05T01:40:58.991Z,64.21
2022-08-05T01:43:27.437Z,63.98
2022-08-05T01:45:56.265Z,64.05
2022-08-05T01:48:25.954Z,64.04
2022-08-05T01:50:56.143Z,63.99
2022-08-05T01:53:57.187Z,64.00
2022-08-05T01:56:13.088Z,63.89
2022-08-05T01:59:01.787Z,63.91
2022-08-05T02:01:39.953Z,63.96
2022-08-05T02:04:09.057Z,64.06
2022-08-05T02:06:38.809Z,63.82
2022-08-05T02:09:06.275Z,63.78
2022-08-05T02:11:48.203Z,63.85
2022-08-05T02:14:48.964Z,63.92
2022-08-05T02:18:27.781Z,63.83
2022-08-05T02:20:22.579Z,63.80
2022-08-05T02:22:57.871Z,63.90
2022-08-05T02:25:35.955Z,63.97
2022-08-05T02:28:29.104Z,63.75
2022-08-05T02:31:00.573Z,63.84
2022-08-05T02:33:36.039Z,63.93
2022-08-05T02:36:09.881Z,63.83
2022-08-05T02:38:44.765Z,63.92
2022-08-05T02:41:21.497Z,64.07
2022-08-05T02:44:02.405Z,64.08
2022-08-05T02:46:53.799Z,64.02
2022-08-05T02:49:25.788Z,63.98
2022-08-05T02:52:02.854Z,64.05
2022-08-05T02:54:36.300Z,64.05
2022-08-05T02:57:10.130Z,64.26
2022-08-05T02:59:54.318Z,64.32
2022-08-05T03:02:25.288Z,64.31
2022-08-05T03:04:56.912Z,64.37
2022-08-05T03:07:40.484Z,64.14
2022-08-05T03:10:14.014Z,64.18
2022-08-05T03:12:40.544Z,64.22
2022-08-05T03:15:09.582Z,64.24
2022-08-05T03:17:41.725Z,64.13
2022-08-05T03:20:09.103Z,64.18
2022-08-05T03:22:36.478Z,64.13
2022-08-05T03:25:31.917Z,64.43
2022-08-05T03:27:58.883Z,64.28
2022-08-05T03:30:28.685Z,64.21
2022-08-05T03:33:06.025Z,64.36
2022-08-05T03:35:33.714Z,64.53
2022-08-05T03:38:00.989Z,64.61
2022-08-05T03:40:32.306Z,64.34
2022-08-05T03:42:59.575Z,64.83
2022-08-05T03:45:58.290Z,64.57
2022-08-05T03:48:29.578Z,64.43
2022-08-05T03:52:39.131Z,64.38
2022-08-05T03:55:51.363Z,64.38
2022-08-05T03:57:16.541Z,64.34
2022-08-05T03:59:55.574Z,64.34
2022-08-05T04:02:39.023Z,64.34
2022-08-05T04:05:12.427Z,64.37
2022-08-05T04:07:57.491Z,64.44
2022-08-05T04:10:32.131Z,64.56
2022-08-05T04:13:00.001Z,64.50
2022-08-05T04:15:27.842Z,64.53
2022-08-05T04:18:03.164Z,64.52
2022-08-05T04:20:29.376Z,64.59
2022-08-05T04:22:57.918Z,64.59
2022-08-05T04:25:56.984Z,64.63
2022-08-05T04:28:11.365Z,64.76
2022-08-05T04:30:39.854Z,64.76
2022-08-05T04:33:09.214Z,64.94
2022-08-05T04:36:11.393Z,64.88
2022-08-05T04:38:21.981Z,64.97
2022-08-05T04:41:06.605Z,64.90
2022-08-05T04:43:33.735Z,64.94
2022-08-05T04:46:00.232Z,65.01
2022-08-05T04:48:27.601Z,65.08
2022-08-05T04:51:01.970Z,64.96
2022-08-05T04:53:38.624Z,64.93
2022-08-05T04:56:33.214Z,64.75
2022-08-05T04:58:55.215Z,64.83
2022-08-05T05:02:05.987Z,64.73
2022-08-05T05:04:07.568Z,64.70
2022-08-05T05:06:39.350Z,64.74
2022-08-05T05:09:14.228Z,64.66
2022-08-05T05:11:53.192Z,64.62
2022-08-05T05:14:28.035Z,64.76
2022-08-05T05:17:01.138Z,64.86
2022-08-05T05:19:36.623Z,64.93
2022-08-05T05:22:23.549Z,64.91
2022-08-05T05:24:58.500Z,64.85
2022-08-05T05:27:41.735Z,64.99
2022-08-05T05:30:29.276Z,65.04
2022-08-05T05:32:57.274Z,65.14
2022-08-05T05:35:29.040Z,65.22
2022-08-05T05:38:02.629Z,65.14
2022-08-05T05:40:30.309Z,65.05
2022-08-05T05:42:59.254Z,65.15
2022-08-05T05:45:26.349Z,65.03
2022-08-05T05:48:05.364Z,65.14
2022-08-05T05:50:32.673Z,65.15
2022-08-05T05:53:00.453Z,65.14
2022-08-05T05:55:51.770Z,65.10
2022-08-05T05:58:12.879Z,65.08
2022-08-05T06:00:40.381Z,65.18
2022-08-05T06:03:39.938Z,65.12
2022-08-05T06:05:58.328Z,65.09
2022-08-05T06:08:32.312Z,65.16
2022-08-05T06:10:59.797Z,65.30
2022-08-05T06:13:26.575Z,65.21
2022-08-05T06:16:29.705Z,65.25
2022-08-05T06:18:39.369Z,65.29
2022-08-05T06:21:05.627Z,65.40
2022-08-05T06:23:43.959Z,65.31
2022-08-05T06:26:13.694Z,65.38
2022-08-05T06:28:47.989Z,65.30
2022-08-05T06:31:17.903Z,65.38
2022-08-05T06:34:06.912Z,65.47
2022-08-05T06:36:56.709Z,65.53
2022-08-05T06:39:21.863Z,65.35
2022-08-05T06:41:50.827Z,65.21
2022-08-05T06:44:18.990Z,65.37
2022-08-05T06:46:50.949Z,65.33
2022-08-05T06:49:17.541Z,65.24
2022-08-05T06:51:45.249Z,65.17
2022-08-05T06:54:11.965Z,65.30
2022-08-05T06:56:54.858Z,65.34
2022-08-05T06:59:30.648Z,65.22
2022-08-05T07:02:05.289Z,65.30
2022-08-05T07:04:31.437Z,65.42
2022-08-05T07:06:59.438Z,65.30
2022-08-05T07:09:25.965Z,65.30
2022-08-05T07:12:00.664Z,65.38
2022-08-05T07:14:45.735Z,65.24
2022-08-05T07:17:59.180Z,65.27
2022-08-05T07:20:31.735Z,65.23
2022-08-05T07:22:44.309Z,65.50
2022-08-05T07:25:22.833Z,65.46
2022-08-05T07:28:04.159Z,65.69
2022-08-05T07:30:38.857Z,65.71
2022-08-05T07:33:09.246Z,65.82
2022-08-05T07:36:04.001Z,65.86
2022-08-05T07:38:32.210Z,65.80
2022-08-05T07:42:06.798Z,66.06
2022-08-05T07:43:52.751Z,66.03
2022-08-05T07:46:25.174Z,65.85
2022-08-05T07:49:02.591Z,66.00
2022-08-05T07:51:40.252Z,65.89
2022-08-05T07:54:10.145Z,65.95
2022-08-05T07:56:59.912Z,65.95
2022-08-05T07:59:38.592Z,65.88
2022-08-05T08:02:15.413Z,65.88
2022-08-05T08:04:48.737Z,65.96
2022-08-05T08:07:17.725Z,65.85
2022-08-05T08:09:45.249Z,65.88
2022-08-05T08:12:35.210Z,65.87
2022-08-05T08:15:02.708Z,65.89
2022-08-05T08:17:30.767Z,65.88
2022-08-05T08:20:21.653Z,65.72
2022-08-05T08:22:43.325Z,65.73
2022-08-05T08:25:15.760Z,65.92
2022-08-05T08:27:45.188Z,65.66
2022-08-05T08:30:29.448Z,65.67
2022-08-05T08:33:13.924Z,65.52
2022-08-05T08:35:52.393Z,65.27
2022-08-05T08:38:32.116Z,65.45
2022-08-05T08:41:06.679Z,65.23
2022-08-05T08:45:21.320Z,65.34
2022-08-05T08:46:22.156Z,65.24
2022-08-05T08:49:06.183Z,64.87
2022-08-05T08:52:03.798Z,64.99
2022-08-05T08:54:27.756Z,65.07
2022-08-05T08:56:54.133Z,65.18
2022-08-05T08:59:23.117Z,64.70
2022-08-05T09:01:56.999Z,64.55
2022-08-05T09:04:30.499Z,64.47
2022-08-05T09:06:57.621Z,64.13
2022-08-05T09:09:24.964Z,63.89
2022-08-05T09:11:58.566Z,63.99
2022-08-05T09:14:57.114Z,63.69
2022-08-05T09:17:40.683Z,63.92
2022-08-05T09:20:06.057Z,63.87
2022-08-05T09:23:05.504Z,63.66
2022-08-05T09:26:01.029Z,63.88
2022-08-05T09:28:32.092Z,63.76
2022-08-05T09:31:22.949Z,63.73
2022-08-05T09:33:57.966Z,63.81
2022-08-05T09:36:37.235Z,63.36
2022-08-05T09:39:18.083Z,63.37
2022-08-05T09:41:58.583Z,62.83
2022-08-05T09:44:50.545Z,63.23
2022-08-05T09:47:22.771Z,63.05
2022-08-05T09:50:00.525Z,62.97
2022-08-05T09:52:35.528Z,63.32
2022-08-05T09:55:56.860Z,63.25
2022-08-05T09:57:58.505Z,63.53
2022-08-05T10:00:26.750Z,63.74
2022-08-05T10:02:54.082Z,63.60
2022-08-05T10:05:28.662Z,63.73
2022-08-05T10:08:35.256Z,64.16
2022-08-05T10:10:48.251Z,63.81
2022-08-05T10:13:43.869Z,63.54
2022-08-05T10:16:34.025Z,63.34
2022-08-05T10:19:01.225Z,63.26
2022-08-05T10:21:35.218Z,63.24
2022-08-05T10:24:11.106Z,63.15
2022-08-05T10:26:52.193Z,63.39
2022-08-05T10:30:05.786Z,63.26
2022-08-05T10:33:00.860Z,63.38
2022-08-05T10:34:58.127Z,62.83
2022-08-05T10:37:40.252Z,62.93
2022-08-05T10:40:49.193Z,62.66
2022-08-05T10:43:39.563Z,62.54
2022-08-05T10:46:07.444Z,61.99
2022-08-05T10:48:52.315Z,61.97
2022-08-05T10:51:29.025Z,61.72
2022-08-05T10:54:01.064Z,61.79
2022-08-05T10:56:30.594Z,61.89
2022-08-05T10:59:07.303Z,61.76
2022-08-05T11:01:55.158Z,61.69
2022-08-05T11:04:30.998Z,61.94
2022-08-05T11:07:08.259Z,61.68
2022-08-05T11:09:47.169Z,61.03
2022-08-05T11:12:41.422Z,61.18
2022-08-05T11:15:44.035Z,61.41
2022-08-05T11:18:14.622Z,61.64
2022-08-05T11:20:45.521Z,61.65
2022-08-05T11:24:04.387Z,60.44
2022-08-05T11:26:33.282Z,61.07
2022-08-05T11:29:13.926Z,61.00
2022-08-05T11:31:58.242Z,60.22
2022-08-05T11:34:38.931Z,60.11
2022-08-05T11:37:06.144Z,60.15
2022-08-05T11:40:00.758Z,60.47
2022-08-05T11:42:32.510Z,60.98
2022-08-05T11:45:05.809Z,61.16
2022-08-05T11:47:48.550Z,60.90
2022-08-05T11:50:17.379Z,59.79
2022-08-05T11:52:44.027Z,60.73
2022-08-05T11:55:12.851Z,60.04
2022-08-05T11:58:09.265Z,60.15
2022-08-05T12:00:31.853Z,59.83
2022-08-05T12:03:28.625Z,59.87
2022-08-05T12:06:05.846Z,59.27
2022-08-05T12:08:39.238Z,58.82
2022-08-05T12:11:20.264Z,59.61
2022-08-05T12:14:04.264Z,59.42
2022-08-05T12:16:38.498Z,59.58
2022-08-05T12:19:10.572Z,59.44
2022-08-05T12:21:56.804Z,59.66
2022-08-05T12:24:24.560Z,59.79
2022-08-05T12:26:53.284Z,60.06
2022-08-05T12:29:22.971Z,60.06
2022-08-05T12:31:58.092Z,60.56
2022-08-05T12:34:33.097Z,60.76
2022-08-05T12:37:10.213Z,60.61
2022-08-05T12:39:40.392Z,60.70
2022-08-05T12:42:14.924Z,60.54
2022-08-05T12:44:43.884Z,60.28
2022-08-05T12:47:12.514Z,60.29
2022-08-05T12:50:02.452Z,60.35
2022-08-05T12:52:39.468Z,60.67
2022-08-05T12:55:32.536Z,60.56
2022-08-05T12:58:38.644Z,60.25
2022-08-05T13:02:01.665Z,60.70
2022-08-05T13:03:42.410Z,60.56
2022-08-05T13:06:16.871Z,61.07
2022-08-05T13:08:52.421Z,61.81
2022-08-05T13:12:02.228Z,62.37
2022-08-05T13:14:19.335Z,62.63
2022-08-05T13:16:54.644Z,62.29
2022-08-05T13:19:25.404Z,62.51
2022-08-05T13:21:52.562Z,62.82
2022-08-05T13:24:27.513Z,62.80
2022-08-05T13:27:11.132Z,62.74
2022-08-05T13:30:31.648Z,62.37
2022-08-05T13:32:34.014Z,61.89
2022-08-05T13:35:01.592Z,61.11
2022-08-05T13:37:34.435Z,60.70
2022-08-05T13:40:16.401Z,61.19
2022-08-05T13:42:46.943Z,61.24
2022-08-05T13:45:13.506Z,61.19
2022-08-05T13:48:08.671Z,60.49
2022-08-05T13:50:34.030Z,59.86
2022-08-05T13:53:00.428Z,58.85
2022-08-05T13:55:41.956Z,58.41
2022-08-05T13:58:13.114Z,58.36
2022-08-05T14:00:56.638Z,58.29
2022-08-05T14:03:23.164Z,58.04
2022-08-05T14:06:24.887Z,58.54
2022-08-05T14:08:36.682Z,58.67
2022-08-05T14:11:20.395Z,58.58
2022-08-05T14:13:48.271Z,57.09
2022-08-05T14:16:17.102Z,57.45
2022-08-05T14:18:45.340Z,58.13
2022-08-05T14:22:10.322Z,58.39
2022-08-05T14:23:58.225Z,58.46
2022-08-05T14:26:36.764Z,58.97
2022-08-05T14:29:15.702Z,58.58
2022-08-05T14:32:03.026Z,59.12
2022-08-05T14:34:35.459Z,59.30
2022-08-05T14:37:03.147Z,58.87
2022-08-05T14:39:29.467Z,59.07
2022-08-05T14:42:19.631Z,58.61
2022-08-05T14:44:42.059Z,58.39
2022-08-05T14:47:08.814Z,58.80
2022-08-05T14:49:59.663Z,59.09
2022-08-05T14:52:42.906Z,59.59
2022-08-05T14:55:07.959Z,59.73
2022-08-05T14:57:56.095Z,59.72
2022-08-05T15:00:29.346Z,59.22
2022-08-05T15:02:56.041Z,59.42
2022-08-05T15:05:22.368Z,59.06
2022-08-05T15:08:10.662Z,59.37
2022-08-05T15:10:42.597Z,59.29
2022-08-05T15:13:09.176Z,59.33
2022-08-05T15:15:55.307Z,58.89
2022-08-05T15:18:23.499Z,58.62
2022-08-05T15:20:49.736Z,58.99
2022-08-05T15:23:17.385Z,58.87
2022-08-05T15:25:52.335Z,59.28
2022-08-05T15:28:27.728Z,59.06
2022-08-05T15:30:54.828Z,59.19
2022-08-05T15:34:04.084Z,58.62
2022-08-05T15:36:16.911Z,58.95
2022-08-05T15:38:50.562Z,59.99
2022-08-05T15:41:57.943Z,61.21
2022-08-05T15:44:23.089Z,63.02
2022-08-05T15:46:49.394Z,63.59
2022-08-05T15:49:26.661Z,64.70
2022-08-05T15:52:13.574Z,64.59
2022-08-05T15:54:43.301Z,64.70
2022-08-05T15:57:09.458Z,64.67
2022-08-05T15:59:36.341Z,65.11
2022-08-05T16:02:09.263Z,66.52
2022-08-05T16:04:41.031Z,66.87
2022-08-05T16:07:10.640Z,66.81
2022-08-05T16:09:37.176Z,67.14
2022-08-05T16:12:08.713Z,67.96
2022-08-05T16:14:35.408Z,67.62
2022-08-05T16:17:01.739Z,66.59
2022-08-05T16:20:05.041Z,66.77
2022-08-05T16:22:24.182Z,66.32
2022-08-05T16:24:54.164Z,66.80
2022-08-05T16:27:32.167Z,65.62
2022-08-05T16:30:08.019Z,66.45
2022-08-05T16:32:49.758Z,66.27
2022-08-05T16:35:16.046Z,65.51
2022-08-05T16:38:02.468Z,65.57
2022-08-05T16:40:30.983Z,65.33
2022-08-05T16:42:59.227Z,65.34
2022-08-05T16:46:03.790Z,65.40
2022-08-05T16:48:11.968Z,64.93
2022-08-05T16:50:53.219Z,64.76
2022-08-05T16:53:22.965Z,65.08
2022-08-05T16:55:59.057Z,64.34
2022-08-05T16:58:25.834Z,64.30
2022-08-05T17:00:52.667Z,64.45
2022-08-05T17:03:19.850Z,64.63
2022-08-05T17:05:51.740Z,64.72
2022-08-05T17:08:33.492Z,64.85
2022-08-05T17:11:08.809Z,65.04
2022-08-05T17:13:42.109Z,64.77
2022-08-05T17:16:27.974Z,64.62
2022-08-05T17:18:55.035Z,64.50
2022-08-05T17:21:21.269Z,64.32
2022-08-05T17:24:04.424Z,64.10
2022-08-05T17:26:35.609Z,64.43
2022-08-05T17:29:07.536Z,64.24
2022-08-05T17:31:57.355Z,63.93
2022-08-05T17:34:29.795Z,64.16
2022-08-05T17:36:58.808Z,64.19
2022-08-05T17:39:34.617Z,64.18
2022-08-05T17:42:18.621Z,64.30
2022-08-05T17:44:50.507Z,64.09
2022-08-05T17:47:22.417Z,63.82
2022-08-05T17:50:04.264Z,63.91
2022-08-05T17:52:49.735Z,64.09
2022-08-05T17:55:20.492Z,64.22
2022-08-05T17:57:50.069Z,64.21
2022-08-05T18:00:16.825Z,64.18
2022-08-05T18:02:43.036Z,64.23
2022-08-05T18:05:09.531Z,64.36
2022-08-05T18:07:41.695Z,63.79
2022-08-05T18:10:11.040Z,64.16
2022-08-05T18:12:38.174Z,64.06
2022-08-05T18:15:04.963Z,64.11
2022-08-05T18:18:00.667Z,63.82
2022-08-05T18:20:18.502Z,63.46
2022-08-05T18:22:54.668Z,63.93
2022-08-05T18:25:23.616Z,64.02
2022-08-05T18:27:51.985Z,63.75
2022-08-05T18:30:19.189Z,63.97
2022-08-05T18:32:53.643Z,63.33
2022-08-05T18:35:49.595Z,63.87
2022-08-05T18:38:16.518Z,63.43
2022-08-05T18:41:53.397Z,63.82
2022-08-05T18:43:38.261Z,63.74
2022-08-05T18:46:09.968Z,63.74
2022-08-05T18:48:36.512Z,63.72
2022-08-05T18:52:05.612Z,63.80
2022-08-05T18:54:13.057Z,63.89
2022-08-05T18:56:39.390Z,63.86
2022-08-05T18:59:42.006Z,62.66
2022-08-05T19:01:57.172Z,62.42
2022-08-05T19:04:25.529Z,62.08
2022-08-05T19:06:53.440Z,61.80
2022-08-05T19:09:20.131Z,61.46
2022-08-05T19:11:59.569Z,61.70
2022-08-05T19:14:44.808Z,61.81
2022-08-05T19:17:16.162Z,62.04
2022-08-05T19:19:46.336Z,62.26
2022-08-05T19:22:13.527Z,62.37
2022-08-05T19:24:55.821Z,62.49
2022-08-05T19:27:24.334Z,62.41
2022-08-05T19:29:57.238Z,62.61
2022-08-05T19:32:26.185Z,62.76
2022-08-05T19:34:54.869Z,63.02
2022-08-05T19:37:35.065Z,63.04
2022-08-05T19:40:10.473Z,63.31
2022-08-05T19:42:37.036Z,63.24
2022-08-05T19:45:06.678Z,63.43
2022-08-05T19:47:34.671Z,63.39
2022-08-05T19:50:04.760Z,63.58
2022-08-05T19:52:33.949Z,63.69
2022-08-05T19:55:08.735Z,63.76
2022-08-05T19:58:07.146Z,63.89
2022-08-05T20:00:35.213Z,64.06
2022-08-05T20:03:01.513Z,64.13
2022-08-05T20:05:42.968Z,64.24
2022-08-05T20:08:10.095Z,64.43
2022-08-05T20:10:36.444Z,64.50
2022-08-05T20:13:03.200Z,64.59
2022-08-05T20:15:51.539Z,64.66
2022-08-05T20:18:32.551Z,64.73
2022-08-05T20:21:00.061Z,64.85
2022-08-05T20:23:40.714Z,64.86
2022-08-05T20:26:16.223Z,64.92
2022-08-05T20:28:50.892Z,64.89
2022-08-05T20:31:21.935Z,64.92
2022-08-05T20:33:50.411Z,64.95
2022-08-05T20:36:18.064Z,64.97
2022-08-05T20:38:53.421Z,64.99
2022-08-05T20:41:24.075Z,65.02
2022-08-05T20:43:58.812Z,65.11
2022-08-05T20:46:29.782Z,65.22
2022-08-05T20:48:56.032Z,65.27
2022-08-05T20:51:22.316Z,65.18
2022-08-05T20:53:56.273Z,65.17
2022-08-05T20:56:28.964Z,65.21
2022-08-05T20:59:04.249Z,65.23
2022-08-05T21:01:41.079Z,65.31
2022-08-05T21:04:10.507Z,65.46
2022-08-05T21:06:45.567Z,65.27
2022-08-05T21:09:14.147Z,65.62
2022-08-05T21:12:07.418Z,65.59
2022-08-05T21:14:28.852Z,65.59
2022-08-05T21:17:01.039Z,65.57
2022-08-05T21:19:27.185Z,65.62
2022-08-05T21:21:54.726Z,65.62
2022-08-05T21:24:20.876Z,65.62
2022-08-05T21:26:53.510Z,65.75
2022-08-05T21:29:26.585Z,65.72
2022-08-05T21:31:59.295Z,65.95
2022-08-05T21:34:25.489Z,65.83
2022-08-05T21:36:54.578Z,65.86
2022-08-05T21:39:26.667Z,65.95
2022-08-05T21:42:01.594Z,65.99
2022-08-05T21:44:29.812Z,65.99
2022-08-05T21:46:58.235Z,65.97
2022-08-05T21:49:48.674Z,66.17
2022-08-05T21:52:22.981Z,66.16
2022-08-05T21:54:55.420Z,66.21
2022-08-05T21:57:31.665Z,66.08
2022-08-05T22:00:04.919Z,66.20
2022-08-05T22:02:40.033Z,66.24
2022-08-05T22:05:08.939Z,66.32
2022-08-05T22:07:40.081Z,66.33
2022-08-05T22:10:26.840Z,66.35
2022-08-05T22:12:57.390Z,66.34
2022-08-05T22:16:01.748Z,66.36
2022-08-05T22:18:11.636Z,66.44
2022-08-05T22:20:38.892Z,66.41
2022-08-05T22:23:24.563Z,66.35
2022-08-05T22:26:11.834Z,66.36
2022-08-05T22:28:41.262Z,66.31
2022-08-05T22:31:07.622Z,66.35
2022-08-05T22:33:55.622Z,66.48
2022-08-05T22:36:24.039Z,66.43
2022-08-05T22:38:51.081Z,66.46
2022-08-05T22:41:25.986Z,66.24
2022-08-05T22:44:07.784Z,66.32
2022-08-05T22:46:34.349Z,66.19
2022-08-05T22:49:23.110Z,66.06
2022-08-05T22:52:06.718Z,66.12
2022-08-05T22:54:35.411Z,66.05
2022-08-05T22:57:02.841Z,66.08
2022-08-05T22:59:45.029Z,66.30
2022-08-05T23:02:16.860Z,66.08
2022-08-05T23:04:51.309Z,66.10
2022-08-05T23:07:21.749Z,65.99
2022-08-05T23:09:58.281Z,65.88
2022-08-05T23:12:32.526Z,65.82
2022-08-05T23:15:03.954Z,65.64
2022-08-05T23:18:00.182Z,65.14
2022-08-05T23:20:22.132Z,65.62
2022-08-05T23:22:50.801Z,65.56
2022-08-05T23:25:54.728Z,65.47
2022-08-05T23:28:09.389Z,65.50
2022-08-05T23:30:40.515Z,65.33
2022-08-05T23:33:16.405Z,65.42
2022-08-05T23:35:52.296Z,65.27
2022-08-05T23:38:23.430Z,65.43
2022-08-05T23:40:50.749Z,65.37
2022-08-05T23:43:25.031Z,65.36
2022-08-05T23:46:05.307Z,65.19
2022-08-05T23:48:59.590Z,65.12
2022-08-05T23:51:52.702Z,64.82
2022-08-05T23:54:30.198Z,64.90
2022-08-05T23:57:04.751Z,64.87
